Fordingbridge, United Kingdom
Current Conditions -  °F | °C
As of 2:20 AM on Saturday 25 Oct 2014 (Local Time) from EGHH Reporting Station
Broken Clouds Broken Clouds  
Wind Chill: 43°   Ceiling: 4100
Heat Index: 43°   Visibility: 6mi
Dew Point: 43°   Wind: 2mph
Humidity: 100%   Direction: 230°SW
Pressure: 30.03"   Gusts: NA
Location:  50.93°N, 1.79°W
Report Text: EGHH 250120Z 23002KT 9999 BKN041 06/06 Q1017
Loading
Personal Weather Stations






























Interactive Weather Map
Tropical Storm Tracking
New forecast layout! Learn more

10-Day Weather Forecast

Advertisements
Track Severe Weather on mobile